sensor_id;sensor_type;location;lat;lon;timestamp;P1;durP1;ratioP1;P2;durP2;ratioP2
44304;SDS011;30019;50.576;8.568;2022-11-04T00:01:36;6.62;;;3.20;;
44304;SDS011;30019;50.576;8.568;2022-11-04T00:04:03;3.80;;;3.03;;
44304;SDS011;30019;50.576;8.568;2022-11-04T00:06:29;5.95;;;3.22;;
44304;SDS011;30019;50.576;8.568;2022-11-04T00:08:55;4.15;;;3.10;;
44304;SDS011;30019;50.576;8.568;2022-11-04T00:11:22;5.30;;;3.05;;
44304;SDS011;30019;50.576;8.568;2022-11-04T00:14:07;6.10;;;2.80;;
44304;SDS011;30019;50.576;8.568;2022-11-04T00:16:34;4.85;;;2.50;;
44304;SDS011;30019;50.576;8.568;2022-11-04T00:19:18;5.93;;;3.33;;
44304;SDS011;30019;50.576;8.568;2022-11-04T00:21:43;4.28;;;2.60;;
44304;SDS011;30019;50.576;8.568;2022-11-04T00:24:28;3.85;;;2.70;;
44304;SDS011;30019;50.576;8.568;2022-11-04T00:27:15;4.65;;;2.62;;
44304;SDS011;30019;50.576;8.568;2022-11-04T00:30:01;4.22;;;2.55;;
44304;SDS011;30019;50.576;8.568;2022-11-04T00:32:28;2.97;;;2.60;;
44304;SDS011;30019;50.576;8.568;2022-11-04T00:35:13;2.78;;;2.20;;
44304;SDS011;30019;50.576;8.568;2022-11-04T00:37:39;5.20;;;2.12;;
44304;SDS011;30019;50.576;8.568;2022-11-04T00:40:07;3.15;;;1.85;;
44304;SDS011;30019;50.576;8.568;2022-11-04T00:42:34;2.62;;;2.12;;
44304;SDS011;30019;50.576;8.568;2022-11-04T00:45:00;6.47;;;2.30;;
44304;SDS011;30019;50.576;8.568;2022-11-04T00:47:25;2.70;;;1.80;;
44304;SDS011;30019;50.576;8.568;2022-11-04T00:49:51;1.87;;;1.75;;
44304;SDS011;30019;50.576;8.568;2022-11-04T00:52:17;2.20;;;2.00;;
44304;SDS011;30019;50.576;8.568;2022-11-04T00:54:43;6.28;;;2.35;;
44304;SDS011;30019;50.576;8.568;2022-11-04T00:57:09;4.43;;;2.28;;
44304;SDS011;30019;50.576;8.568;2022-11-04T00:59:37;3.42;;;2.30;;
44304;SDS011;30019;50.576;8.568;2022-11-04T01:02:04;2.45;;;1.83;;
44304;SDS011;30019;50.576;8.568;2022-11-04T01:04:30;2.58;;;1.80;;
44304;SDS011;30019;50.576;8.568;2022-11-04T01:06:56;3.67;;;1.73;;
44304;SDS011;30019;50.576;8.568;2022-11-04T01:09:22;5.72;;;2.00;;
44304;SDS011;30019;50.576;8.568;2022-11-04T01:11:47;1.92;;;1.73;;
44304;SDS011;30019;50.576;8.568;2022-11-04T01:14:13;5.90;;;2.03;;
44304;SDS011;30019;50.576;8.568;2022-11-04T01:16:39;3.75;;;2.05;;
44304;SDS011;30019;50.576;8.568;2022-11-04T01:19:05;1.87;;;1.77;;
44304;SDS011;30019;50.576;8.568;2022-11-04T01:21:30;2.60;;;1.60;;
44304;SDS011;30019;50.576;8.568;2022-11-04T01:23:56;3.00;;;1.90;;
44304;SDS011;30019;50.576;8.568;2022-11-04T01:26:23;3.70;;;2.17;;
44304;SDS011;30019;50.576;8.568;2022-11-04T01:28:50;4.60;;;2.78;;
44304;SDS011;30019;50.576;8.568;2022-11-04T01:31:19;6.87;;;2.83;;
44304;SDS011;30019;50.576;8.568;2022-11-04T01:33:48;1.30;;;1.17;;
44304;SDS011;30019;50.576;8.568;2022-11-04T01:36:14;1.48;;;1.37;;
44304;SDS011;30019;50.576;8.568;2022-11-04T01:38:40;1.85;;;1.30;;
44304;SDS011;30019;50.576;8.568;2022-11-04T01:41:06;2.67;;;1.80;;
44304;SDS011;30019;50.576;8.568;2022-11-04T01:46:26;2.40;;;1.67;;
44304;SDS011;30019;50.576;8.568;2022-11-04T01:48:58;3.55;;;1.87;;
44304;SDS011;30019;50.576;8.568;2022-11-04T01:51:28;3.65;;;2.30;;
44304;SDS011;30019;50.576;8.568;2022-11-04T01:53:59;3.37;;;2.58;;
44304;SDS011;30019;50.576;8.568;2022-11-04T01:56:25;3.60;;;2.60;;
44304;SDS011;30019;50.576;8.568;2022-11-04T01:58:53;3.97;;;2.00;;
44304;SDS011;30019;50.576;8.568;2022-11-04T02:01:24;4.75;;;1.80;;
44304;SDS011;30019;50.576;8.568;2022-11-04T02:03:59;4.90;;;1.55;;
44304;SDS011;30019;50.576;8.568;2022-11-04T02:06:45;1.87;;;1.70;;
44304;SDS011;30019;50.576;8.568;2022-11-04T02:09:12;2.17;;;1.60;;
44304;SDS011;30019;50.576;8.568;2022-11-04T02:11:38;3.12;;;1.40;;
44304;SDS011;30019;50.576;8.568;2022-11-04T02:14:22;4.55;;;1.58;;
44304;SDS011;30019;50.576;8.568;2022-11-04T02:16:48;1.55;;;1.45;;
44304;SDS011;30019;50.576;8.568;2022-11-04T02:27:17;1.08;;;0.98;;
44304;SDS011;30019;50.576;8.568;2022-11-04T02:35:29;8.38;;;2.95;;
44304;SDS011;30019;50.576;8.568;2022-11-04T02:46:31;1.55;;;1.20;;
44304;SDS011;30019;50.576;8.568;2022-11-04T02:51:40;2.97;;;1.55;;
44304;SDS011;30019;50.576;8.568;2022-11-04T02:56:39;4.72;;;2.10;;
44304;SDS011;30019;50.576;8.568;2022-11-04T03:02:02;3.55;;;1.40;;
44304;SDS011;30019;50.576;8.568;2022-11-04T03:04:32;2.67;;;1.30;;
44304;SDS011;30019;50.576;8.568;2022-11-04T03:07:02;2.12;;;1.37;;
44304;SDS011;30019;50.576;8.568;2022-11-04T03:09:32;2.67;;;1.50;;
44304;SDS011;30019;50.576;8.568;2022-11-04T03:12:01;2.78;;;1.70;;
44304;SDS011;30019;50.576;8.568;2022-11-04T03:14:34;2.78;;;1.75;;
44304;SDS011;30019;50.576;8.568;2022-11-04T03:17:05;1.98;;;1.73;;
44304;SDS011;30019;50.576;8.568;2022-11-04T03:19:43;1.58;;;1.48;;
44304;SDS011;30019;50.576;8.568;2022-11-04T03:22:19;1.63;;;1.40;;
44304;SDS011;30019;50.576;8.568;2022-11-04T03:24:47;1.83;;;1.50;;
44304;SDS011;30019;50.576;8.568;2022-11-04T03:30:00;3.15;;;1.23;;
44304;SDS011;30019;50.576;8.568;2022-11-04T03:35:11;0.80;;;0.80;;
44304;SDS011;30019;50.576;8.568;2022-11-04T03:37:40;2.15;;;1.10;;
44304;SDS011;30019;50.576;8.568;2022-11-04T03:40:06;3.42;;;1.05;;
44304;SDS011;30019;50.576;8.568;2022-11-04T03:42:35;1.75;;;0.90;;
44304;SDS011;30019;50.576;8.568;2022-11-04T03:45:05;1.25;;;1.00;;
44304;SDS011;30019;50.576;8.568;2022-11-04T03:47:32;1.60;;;1.17;;
44304;SDS011;30019;50.576;8.568;2022-11-04T03:52:33;3.60;;;1.20;;
44304;SDS011;30019;50.576;8.568;2022-11-04T03:54:59;1.30;;;1.20;;
44304;SDS011;30019;50.576;8.568;2022-11-04T03:57:32;3.55;;;1.60;;
44304;SDS011;30019;50.576;8.568;2022-11-04T04:00:10;1.92;;;1.58;;
44304;SDS011;30019;50.576;8.568;2022-11-04T04:02:40;2.40;;;1.23;;
44304;SDS011;30019;50.576;8.568;2022-11-04T04:05:12;2.08;;;1.27;;
44304;SDS011;30019;50.576;8.568;2022-11-04T04:08:11;2.12;;;1.33;;
44304;SDS011;30019;50.576;8.568;2022-11-04T04:13:44;4.35;;;1.12;;
44304;SDS011;30019;50.576;8.568;2022-11-04T04:21:21;3.92;;;1.30;;
44304;SDS011;30019;50.576;8.568;2022-11-04T04:24:06;5.18;;;1.10;;
44304;SDS011;30019;50.576;8.568;2022-11-04T04:26:53;1.58;;;1.17;;
44304;SDS011;30019;50.576;8.568;2022-11-04T04:29:39;5.43;;;1.30;;
44304;SDS011;30019;50.576;8.568;2022-11-04T04:32:08;3.60;;;1.25;;
44304;SDS011;30019;50.576;8.568;2022-11-04T04:34:34;2.83;;;1.10;;
44304;SDS011;30019;50.576;8.568;2022-11-04T04:37:02;1.90;;;1.50;;
44304;SDS011;30019;50.576;8.568;2022-11-04T04:39:34;3.83;;;1.55;;
44304;SDS011;30019;50.576;8.568;2022-11-04T04:42:22;2.05;;;1.20;;
44304;SDS011;30019;50.576;8.568;2022-11-04T04:45:07;2.00;;;1.80;;
44304;SDS011;30019;50.576;8.568;2022-11-04T04:47:38;3.53;;;1.90;;
44304;SDS011;30019;50.576;8.568;2022-11-04T04:50:09;2.22;;;1.80;;
44304;SDS011;30019;50.576;8.568;2022-11-04T04:52:37;2.22;;;1.77;;
44304;SDS011;30019;50.576;8.568;2022-11-04T04:55:05;2.08;;;1.55;;
44304;SDS011;30019;50.576;8.568;2022-11-04T04:57:32;4.45;;;2.00;;
44304;SDS011;30019;50.576;8.568;2022-11-04T04:59:57;2.62;;;1.98;;
44304;SDS011;30019;50.576;8.568;2022-11-04T05:02:23;3.78;;;2.33;;
44304;SDS011;30019;50.576;8.568;2022-11-04T05:04:48;6.30;;;2.25;;
44304;SDS011;30019;50.576;8.568;2022-11-04T05:07:14;6.40;;;2.78;;
44304;SDS011;30019;50.576;8.568;2022-11-04T05:09:39;6.72;;;3.20;;
44304;SDS011;30019;50.576;8.568;2022-11-04T05:12:05;6.90;;;3.85;;
44304;SDS011;30019;50.576;8.568;2022-11-04T05:14:31;4.87;;;2.80;;
44304;SDS011;30019;50.576;8.568;2022-11-04T05:16:56;10.50;;;3.15;;
44304;SDS011;30019;50.576;8.568;2022-11-04T05:19:22;8.98;;;3.72;;
44304;SDS011;30019;50.576;8.568;2022-11-04T05:21:47;5.37;;;3.45;;
44304;SDS011;30019;50.576;8.568;2022-11-04T05:24:13;6.32;;;3.40;;
44304;SDS011;30019;50.576;8.568;2022-11-04T05:26:39;8.05;;;3.70;;
44304;SDS011;30019;50.576;8.568;2022-11-04T05:29:04;6.18;;;3.92;;
44304;SDS011;30019;50.576;8.568;2022-11-04T05:31:30;11.95;;;4.70;;
44304;SDS011;30019;50.576;8.568;2022-11-04T05:33:55;4.90;;;3.95;;
44304;SDS011;30019;50.576;8.568;2022-11-04T05:36:23;6.22;;;3.75;;
44304;SDS011;30019;50.576;8.568;2022-11-04T05:38:49;6.45;;;4.18;;
44304;SDS011;30019;50.576;8.568;2022-11-04T05:41:17;4.75;;;4.03;;
44304;SDS011;30019;50.576;8.568;2022-11-04T05:43:52;9.65;;;5.07;;
44304;SDS011;30019;50.576;8.568;2022-11-04T05:46:19;14.55;;;6.47;;
44304;SDS011;30019;50.576;8.568;2022-11-04T05:48:45;12.65;;;5.07;;
44304;SDS011;30019;50.576;8.568;2022-11-04T05:51:14;8.88;;;5.37;;
44304;SDS011;30019;50.576;8.568;2022-11-04T05:53:43;9.20;;;5.78;;
44304;SDS011;30019;50.576;8.568;2022-11-04T05:56:08;7.80;;;5.57;;
44304;SDS011;30019;50.576;8.568;2022-11-04T05:58:34;12.57;;;6.07;;
44304;SDS011;30019;50.576;8.568;2022-11-04T06:01:21;9.65;;;5.65;;
44304;SDS011;30019;50.576;8.568;2022-11-04T06:03:50;8.70;;;5.05;;
44304;SDS011;30019;50.576;8.568;2022-11-04T06:06:15;11.27;;;6.07;;
44304;SDS011;30019;50.576;8.568;2022-11-04T06:08:41;8.07;;;4.47;;
44304;SDS011;30019;50.576;8.568;2022-11-04T06:11:07;9.93;;;4.78;;
44304;SDS011;30019;50.576;8.568;2022-11-04T06:13:32;14.00;;;4.25;;
44304;SDS011;30019;50.576;8.568;2022-11-04T06:15:58;11.00;;;3.70;;
44304;SDS011;30019;50.576;8.568;2022-11-04T06:18:23;16.87;;;5.75;;
44304;SDS011;30019;50.576;8.568;2022-11-04T06:20:49;9.93;;;4.67;;
44304;SDS011;30019;50.576;8.568;2022-11-04T06:23:14;15.35;;;6.32;;
44304;SDS011;30019;50.576;8.568;2022-11-04T06:25:40;19.00;;;7.00;;
44304;SDS011;30019;50.576;8.568;2022-11-04T06:28:05;14.38;;;6.15;;
44304;SDS011;30019;50.576;8.568;2022-11-04T06:30:31;10.10;;;6.47;;
44304;SDS011;30019;50.576;8.568;2022-11-04T06:32:56;11.75;;;6.05;;
44304;SDS011;30019;50.576;8.568;2022-11-04T06:35:22;18.73;;;6.00;;
44304;SDS011;30019;50.576;8.568;2022-11-04T06:37:47;12.45;;;5.55;;
44304;SDS011;30019;50.576;8.568;2022-11-04T06:40:13;12.93;;;6.32;;
44304;SDS011;30019;50.576;8.568;2022-11-04T06:42:38;12.05;;;5.18;;
44304;SDS011;30019;50.576;8.568;2022-11-04T06:45:06;9.80;;;5.28;;
44304;SDS011;30019;50.576;8.568;2022-11-04T06:47:32;10.23;;;4.93;;
44304;SDS011;30019;50.576;8.568;2022-11-04T06:49:58;10.07;;;5.40;;
44304;SDS011;30019;50.576;8.568;2022-11-04T06:52:23;15.25;;;6.45;;
44304;SDS011;30019;50.576;8.568;2022-11-04T06:54:49;11.35;;;5.65;;
44304;SDS011;30019;50.576;8.568;2022-11-04T06:57:14;11.60;;;5.85;;
44304;SDS011;30019;50.576;8.568;2022-11-04T06:59:40;9.23;;;5.45;;
44304;SDS011;30019;50.576;8.568;2022-11-04T07:02:05;11.07;;;4.37;;
44304;SDS011;30019;50.576;8.568;2022-11-04T07:04:31;5.28;;;3.87;;
44304;SDS011;30019;50.576;8.568;2022-11-04T07:06:56;7.68;;;3.70;;
44304;SDS011;30019;50.576;8.568;2022-11-04T07:09:22;9.40;;;3.67;;
44304;SDS011;30019;50.576;8.568;2022-11-04T07:11:47;8.25;;;5.05;;
44304;SDS011;30019;50.576;8.568;2022-11-04T07:14:13;10.57;;;5.75;;
44304;SDS011;30019;50.576;8.568;2022-11-04T07:16:39;8.20;;;4.47;;
44304;SDS011;30019;50.576;8.568;2022-11-04T07:19:04;7.85;;;4.30;;
44304;SDS011;30019;50.576;8.568;2022-11-04T07:21:30;5.07;;;3.67;;
44304;SDS011;30019;50.576;8.568;2022-11-04T07:23:56;7.35;;;4.07;;
44304;SDS011;30019;50.576;8.568;2022-11-04T07:26:22;8.07;;;4.72;;
44304;SDS011;30019;50.576;8.568;2022-11-04T07:28:47;6.30;;;3.80;;
44304;SDS011;30019;50.576;8.568;2022-11-04T07:31:13;6.75;;;3.78;;
44304;SDS011;30019;50.576;8.568;2022-11-04T07:33:40;9.05;;;4.20;;
44304;SDS011;30019;50.576;8.568;2022-11-04T07:36:07;7.60;;;3.50;;
44304;SDS011;30019;50.576;8.568;2022-11-04T07:38:35;8.13;;;3.95;;
44304;SDS011;30019;50.576;8.568;2022-11-04T07:41:00;14.30;;;4.45;;
44304;SDS011;30019;50.576;8.568;2022-11-04T07:43:27;8.68;;;4.72;;
44304;SDS011;30019;50.576;8.568;2022-11-04T07:46:07;6.45;;;3.67;;
44304;SDS011;30019;50.576;8.568;2022-11-04T07:48:34;17.25;;;9.10;;
44304;SDS011;30019;50.576;8.568;2022-11-04T07:51:01;8.82;;;4.03;;
44304;SDS011;30019;50.576;8.568;2022-11-04T07:53:27;4.75;;;3.28;;
44304;SDS011;30019;50.576;8.568;2022-11-04T07:55:54;8.75;;;3.80;;
44304;SDS011;30019;50.576;8.568;2022-11-04T07:58:19;11.80;;;4.72;;
44304;SDS011;30019;50.576;8.568;2022-11-04T08:00:46;13.60;;;4.32;;
44304;SDS011;30019;50.576;8.568;2022-11-04T08:03:11;32.40;;;4.78;;
44304;SDS011;30019;50.576;8.568;2022-11-04T08:05:37;9.30;;;3.78;;
44304;SDS011;30019;50.576;8.568;2022-11-04T08:08:03;11.12;;;7.37;;
44304;SDS011;30019;50.576;8.568;2022-11-04T08:10:28;16.33;;;6.35;;
44304;SDS011;30019;50.576;8.568;2022-11-04T08:12:54;9.43;;;5.45;;
44304;SDS011;30019;50.576;8.568;2022-11-04T08:15:19;11.75;;;4.70;;
44304;SDS011;30019;50.576;8.568;2022-11-04T08:17:45;10.57;;;4.80;;
44304;SDS011;30019;50.576;8.568;2022-11-04T08:20:11;13.10;;;4.75;;
44304;SDS011;30019;50.576;8.568;2022-11-04T08:22:36;11.38;;;5.18;;
44304;SDS011;30019;50.576;8.568;2022-11-04T08:25:02;9.88;;;6.72;;
44304;SDS011;30019;50.576;8.568;2022-11-04T08:27:28;15.82;;;6.53;;
44304;SDS011;30019;50.576;8.568;2022-11-04T08:29:53;8.80;;;5.40;;
44304;SDS011;30019;50.576;8.568;2022-11-04T08:32:19;14.35;;;6.32;;
44304;SDS011;30019;50.576;8.568;2022-11-04T08:34:44;13.57;;;5.82;;
44304;SDS011;30019;50.576;8.568;2022-11-04T08:37:13;7.50;;;5.22;;
44304;SDS011;30019;50.576;8.568;2022-11-04T08:39:40;9.57;;;5.60;;
44304;SDS011;30019;50.576;8.568;2022-11-04T08:42:06;13.10;;;5.72;;
44304;SDS011;30019;50.576;8.568;2022-11-04T08:44:32;12.90;;;6.10;;
44304;SDS011;30019;50.576;8.568;2022-11-04T08:46:58;12.70;;;6.18;;
44304;SDS011;30019;50.576;8.568;2022-11-04T08:49:23;9.73;;;6.28;;
44304;SDS011;30019;50.576;8.568;2022-11-04T08:51:49;15.57;;;8.63;;
44304;SDS011;30019;50.576;8.568;2022-11-04T08:54:21;13.30;;;5.30;;
44304;SDS011;30019;50.576;8.568;2022-11-04T08:56:47;8.55;;;4.90;;
44304;SDS011;30019;50.576;8.568;2022-11-04T08:59:13;9.32;;;4.72;;
44304;SDS011;30019;50.576;8.568;2022-11-04T09:01:39;10.38;;;5.60;;
44304;SDS011;30019;50.576;8.568;2022-11-04T09:04:09;8.35;;;4.50;;
44304;SDS011;30019;50.576;8.568;2022-11-04T09:06:37;12.60;;;4.70;;
44304;SDS011;30019;50.576;8.568;2022-11-04T09:09:06;9.00;;;4.45;;
44304;SDS011;30019;50.576;8.568;2022-11-04T09:11:35;6.28;;;3.47;;
44304;SDS011;30019;50.576;8.568;2022-11-04T09:14:03;6.75;;;3.42;;
44304;SDS011;30019;50.576;8.568;2022-11-04T09:16:30;5.00;;;3.15;;
44304;SDS011;30019;50.576;8.568;2022-11-04T09:18:57;7.50;;;3.00;;
44304;SDS011;30019;50.576;8.568;2022-11-04T09:21:24;10.35;;;2.60;;
44304;SDS011;30019;50.576;8.568;2022-11-04T09:23:50;5.10;;;2.70;;
44304;SDS011;30019;50.576;8.568;2022-11-04T09:26:16;9.18;;;2.72;;
44304;SDS011;30019;50.576;8.568;2022-11-04T09:28:42;2.92;;;2.60;;
44304;SDS011;30019;50.576;8.568;2022-11-04T09:31:08;3.85;;;2.55;;
44304;SDS011;30019;50.576;8.568;2022-11-04T09:33:37;8.07;;;3.03;;
44304;SDS011;30019;50.576;8.568;2022-11-04T09:36:02;6.73;;;2.57;;
44304;SDS011;30019;50.576;8.568;2022-11-04T09:38:28;8.55;;;2.80;;
44304;SDS011;30019;50.576;8.568;2022-11-04T09:40:54;7.93;;;2.60;;
44304;SDS011;30019;50.576;8.568;2022-11-04T09:45:51;7.53;;;3.15;;
44304;SDS011;30019;50.576;8.568;2022-11-04T09:48:30;6.87;;;3.05;;
44304;SDS011;30019;50.576;8.568;2022-11-04T09:51:09;14.85;;;3.22;;
44304;SDS011;30019;50.576;8.568;2022-11-04T09:53:45;7.72;;;2.80;;
44304;SDS011;30019;50.576;8.568;2022-11-04T09:56:14;7.43;;;3.55;;
44304;SDS011;30019;50.576;8.568;2022-11-04T09:58:44;5.65;;;3.35;;
44304;SDS011;30019;50.576;8.568;2022-11-04T10:01:25;10.57;;;3.22;;
44304;SDS011;30019;50.576;8.568;2022-11-04T10:06:52;10.98;;;3.12;;
44304;SDS011;30019;50.576;8.568;2022-11-04T10:12:16;8.10;;;3.42;;
44304;SDS011;30019;50.576;8.568;2022-11-04T10:14:51;11.30;;;3.20;;
44304;SDS011;30019;50.576;8.568;2022-11-04T10:17:37;7.70;;;3.08;;
44304;SDS011;30019;50.576;8.568;2022-11-04T10:26:06;11.38;;;2.45;;
44304;SDS011;30019;50.576;8.568;2022-11-04T10:28:23;6.55;;;3.05;;
44304;SDS011;30019;50.576;8.568;2022-11-04T10:30:57;5.93;;;2.40;;
44304;SDS011;30019;50.576;8.568;2022-11-04T10:33:25;7.28;;;2.80;;
44304;SDS011;30019;50.576;8.568;2022-11-04T10:35:57;6.53;;;2.25;;
44304;SDS011;30019;50.576;8.568;2022-11-04T10:43:48;4.30;;;1.85;;
44304;SDS011;30019;50.576;8.568;2022-11-04T10:48:49;9.85;;;1.87;;
44304;SDS011;30019;50.576;8.568;2022-11-04T10:51:28;4.10;;;1.80;;
44304;SDS011;30019;50.576;8.568;2022-11-04T10:53:54;5.80;;;1.45;;
44304;SDS011;30019;50.576;8.568;2022-11-04T10:56:28;7.32;;;1.92;;
44304;SDS011;30019;50.576;8.568;2022-11-04T10:59:21;4.25;;;1.67;;
44304;SDS011;30019;50.576;8.568;2022-11-04T11:01:57;10.55;;;2.12;;
44304;SDS011;30019;50.576;8.568;2022-11-04T11:04:29;5.65;;;1.80;;
44304;SDS011;30019;50.576;8.568;2022-11-04T11:06:57;7.68;;;1.92;;
44304;SDS011;30019;50.576;8.568;2022-11-04T11:09:29;4.25;;;2.00;;
44304;SDS011;30019;50.576;8.568;2022-11-04T11:12:01;6.37;;;2.17;;
44304;SDS011;30019;50.576;8.568;2022-11-04T11:16:57;10.52;;;2.03;;
44304;SDS011;30019;50.576;8.568;2022-11-04T11:19:43;5.68;;;2.08;;
44304;SDS011;30019;50.576;8.568;2022-11-04T11:25:22;6.62;;;1.83;;
44304;SDS011;30019;50.576;8.568;2022-11-04T11:27:51;5.20;;;2.00;;
44304;SDS011;30019;50.576;8.568;2022-11-04T11:32:56;6.15;;;2.50;;
44304;SDS011;30019;50.576;8.568;2022-11-04T11:35:25;5.22;;;2.40;;
44304;SDS011;30019;50.576;8.568;2022-11-04T11:37:55;7.78;;;2.42;;
44304;SDS011;30019;50.576;8.568;2022-11-04T11:40:25;2.97;;;2.10;;
44304;SDS011;30019;50.576;8.568;2022-11-04T11:42:56;8.25;;;2.00;;
44304;SDS011;30019;50.576;8.568;2022-11-04T11:45:24;5.10;;;1.92;;
44304;SDS011;30019;50.576;8.568;2022-11-04T11:47:50;12.37;;;5.90;;
44304;SDS011;30019;50.576;8.568;2022-11-04T11:53:11;7.00;;;2.28;;
44304;SDS011;30019;50.576;8.568;2022-11-04T11:55:40;3.65;;;1.83;;
44304;SDS011;30019;50.576;8.568;2022-11-04T11:58:38;4.12;;;1.90;;
44304;SDS011;30019;50.576;8.568;2022-11-04T12:01:18;5.55;;;2.00;;
44304;SDS011;30019;50.576;8.568;2022-11-04T12:03:48;7.87;;;1.70;;
44304;SDS011;30019;50.576;8.568;2022-11-04T12:14:43;16.42;;;1.85;;
44304;SDS011;30019;50.576;8.568;2022-11-04T12:25:39;5.22;;;1.60;;
44304;SDS011;30019;50.576;8.568;2022-11-04T12:31:16;6.57;;;1.90;;
44304;SDS011;30019;50.576;8.568;2022-11-04T12:33:56;6.55;;;2.08;;
44304;SDS011;30019;50.576;8.568;2022-11-04T12:36:59;9.95;;;2.40;;
44304;SDS011;30019;50.576;8.568;2022-11-04T12:49:08;9.75;;;2.10;;
44304;SDS011;30019;50.576;8.568;2022-11-04T12:52:15;11.27;;;2.28;;
44304;SDS011;30019;50.576;8.568;2022-11-04T12:57:51;8.93;;;2.10;;
44304;SDS011;30019;50.576;8.568;2022-11-04T13:00:53;10.05;;;1.85;;
44304;SDS011;30019;50.576;8.568;2022-11-04T13:03:32;7.78;;;2.08;;
44304;SDS011;30019;50.576;8.568;2022-11-04T13:06:04;6.62;;;1.87;;
44304;SDS011;30019;50.576;8.568;2022-11-04T13:08:39;10.30;;;2.03;;
44304;SDS011;30019;50.576;8.568;2022-11-04T13:13:50;5.50;;;1.30;;
44304;SDS011;30019;50.576;8.568;2022-11-04T13:16:40;4.90;;;1.80;;
44304;SDS011;30019;50.576;8.568;2022-11-04T13:19:19;7.32;;;1.87;;
44304;SDS011;30019;50.576;8.568;2022-11-04T13:21:53;8.93;;;1.77;;
44304;SDS011;30019;50.576;8.568;2022-11-04T13:24:22;5.82;;;1.80;;
44304;SDS011;30019;50.576;8.568;2022-11-04T13:26:54;3.58;;;1.15;;
44304;SDS011;30019;50.576;8.568;2022-11-04T13:29:26;8.82;;;1.77;;
44304;SDS011;30019;50.576;8.568;2022-11-04T13:35:06;40.35;;;19.62;;
44304;SDS011;30019;50.576;8.568;2022-11-04T13:37:38;7.82;;;1.62;;
44304;SDS011;30019;50.576;8.568;2022-11-04T13:43:24;7.07;;;1.40;;
44304;SDS011;30019;50.576;8.568;2022-11-04T13:49:17;5.03;;;1.60;;
44304;SDS011;30019;50.576;8.568;2022-11-04T13:51:40;5.07;;;1.60;;
44304;SDS011;30019;50.576;8.568;2022-11-04T13:56:47;6.72;;;1.52;;
44304;SDS011;30019;50.576;8.568;2022-11-04T13:59:23;9.23;;;1.87;;
44304;SDS011;30019;50.576;8.568;2022-11-04T14:04:36;7.00;;;1.67;;
44304;SDS011;30019;50.576;8.568;2022-11-04T14:07:03;6.37;;;1.62;;
44304;SDS011;30019;50.576;8.568;2022-11-04T14:14:38;3.70;;;1.67;;
44304;SDS011;30019;50.576;8.568;2022-11-04T14:23:00;5.97;;;2.25;;
44304;SDS011;30019;50.576;8.568;2022-11-04T14:25:37;15.07;;;4.12;;
44304;SDS011;30019;50.576;8.568;2022-11-04T14:38:40;9.55;;;4.05;;
44304;SDS011;30019;50.576;8.568;2022-11-04T14:43:38;9.05;;;3.62;;
44304;SDS011;30019;50.576;8.568;2022-11-04T14:46:06;10.67;;;3.73;;
44304;SDS011;30019;50.576;8.568;2022-11-04T14:48:33;9.68;;;3.28;;
44304;SDS011;30019;50.576;8.568;2022-11-04T14:50:59;8.30;;;3.15;;
44304;SDS011;30019;50.576;8.568;2022-11-04T14:53:32;5.05;;;2.90;;
44304;SDS011;30019;50.576;8.568;2022-11-04T14:56:02;8.57;;;3.45;;
44304;SDS011;30019;50.576;8.568;2022-11-04T14:58:28;7.12;;;3.70;;
44304;SDS011;30019;50.576;8.568;2022-11-04T15:00:54;17.80;;;4.60;;
44304;SDS011;30019;50.576;8.568;2022-11-04T15:03:26;9.48;;;3.67;;
44304;SDS011;30019;50.576;8.568;2022-11-04T15:06:02;10.40;;;3.75;;
44304;SDS011;30019;50.576;8.568;2022-11-04T15:08:36;10.38;;;4.20;;
44304;SDS011;30019;50.576;8.568;2022-11-04T15:11:13;8.75;;;3.42;;
44304;SDS011;30019;50.576;8.568;2022-11-04T15:13:45;9.73;;;3.20;;
44304;SDS011;30019;50.576;8.568;2022-11-04T15:16:19;9.18;;;3.70;;
44304;SDS011;30019;50.576;8.568;2022-11-04T15:18:48;5.75;;;3.83;;
44304;SDS011;30019;50.576;8.568;2022-11-04T15:21:15;8.73;;;4.10;;
44304;SDS011;30019;50.576;8.568;2022-11-04T15:23:53;11.27;;;3.60;;
44304;SDS011;30019;50.576;8.568;2022-11-04T15:26:27;10.50;;;4.20;;
44304;SDS011;30019;50.576;8.568;2022-11-04T15:28:54;12.10;;;4.05;;
44304;SDS011;30019;50.576;8.568;2022-11-04T15:31:25;15.27;;;4.30;;
44304;SDS011;30019;50.576;8.568;2022-11-04T15:33:55;16.40;;;5.03;;
44304;SDS011;30019;50.576;8.568;2022-11-04T15:36:24;10.02;;;4.65;;
44304;SDS011;30019;50.576;8.568;2022-11-04T15:39:02;7.10;;;4.45;;
44304;SDS011;30019;50.576;8.568;2022-11-04T15:41:31;15.00;;;5.03;;
44304;SDS011;30019;50.576;8.568;2022-11-04T15:44:23;14.25;;;5.43;;
44304;SDS011;30019;50.576;8.568;2022-11-04T15:46:52;10.27;;;5.00;;
44304;SDS011;30019;50.576;8.568;2022-11-04T15:49:20;10.88;;;5.05;;
44304;SDS011;30019;50.576;8.568;2022-11-04T15:51:50;11.07;;;5.75;;
44304;SDS011;30019;50.576;8.568;2022-11-04T15:54:20;11.90;;;6.03;;
44304;SDS011;30019;50.576;8.568;2022-11-04T15:56:51;16.58;;;6.50;;
44304;SDS011;30019;50.576;8.568;2022-11-04T15:59:29;13.75;;;6.95;;
44304;SDS011;30019;50.576;8.568;2022-11-04T16:01:57;13.43;;;6.40;;
44304;SDS011;30019;50.576;8.568;2022-11-04T16:04:24;19.45;;;7.82;;
44304;SDS011;30019;50.576;8.568;2022-11-04T16:07:02;15.23;;;8.30;;
44304;SDS011;30019;50.576;8.568;2022-11-04T16:09:28;12.25;;;6.82;;
44304;SDS011;30019;50.576;8.568;2022-11-04T16:12:04;12.65;;;7.18;;
44304;SDS011;30019;50.576;8.568;2022-11-04T16:18:04;13.88;;;7.35;;
44304;SDS011;30019;50.576;8.568;2022-11-04T16:20:31;14.38;;;8.20;;
44304;SDS011;30019;50.576;8.568;2022-11-04T16:23:00;11.95;;;7.25;;
44304;SDS011;30019;50.576;8.568;2022-11-04T16:25:32;16.42;;;8.23;;
44304;SDS011;30019;50.576;8.568;2022-11-04T16:27:59;21.12;;;7.93;;
44304;SDS011;30019;50.576;8.568;2022-11-04T16:30:25;13.40;;;7.65;;
44304;SDS011;30019;50.576;8.568;2022-11-04T16:32:52;18.23;;;8.70;;
44304;SDS011;30019;50.576;8.568;2022-11-04T16:35:26;18.58;;;10.30;;
44304;SDS011;30019;50.576;8.568;2022-11-04T16:37:59;23.38;;;10.45;;
44304;SDS011;30019;50.576;8.568;2022-11-04T16:40:25;24.52;;;14.35;;
44304;SDS011;30019;50.576;8.568;2022-11-04T16:42:51;26.75;;;14.00;;
44304;SDS011;30019;50.576;8.568;2022-11-04T16:45:30;24.12;;;12.70;;
44304;SDS011;30019;50.576;8.568;2022-11-04T16:47:57;27.75;;;15.63;;
44304;SDS011;30019;50.576;8.568;2022-11-04T16:50:23;36.88;;;16.58;;
44304;SDS011;30019;50.576;8.568;2022-11-04T16:52:49;40.12;;;22.87;;
44304;SDS011;30019;50.576;8.568;2022-11-04T16:55:15;39.97;;;21.60;;
44304;SDS011;30019;50.576;8.568;2022-11-04T16:57:42;40.60;;;24.73;;
44304;SDS011;30019;50.576;8.568;2022-11-04T17:00:11;32.10;;;20.17;;
44304;SDS011;30019;50.576;8.568;2022-11-04T17:02:43;24.23;;;16.00;;
44304;SDS011;30019;50.576;8.568;2022-11-04T17:05:08;35.10;;;18.20;;
44304;SDS011;30019;50.576;8.568;2022-11-04T17:07:38;30.90;;;17.80;;
44304;SDS011;30019;50.576;8.568;2022-11-04T17:10:04;39.25;;;23.40;;
44304;SDS011;30019;50.576;8.568;2022-11-04T17:12:41;51.00;;;29.98;;
44304;SDS011;30019;50.576;8.568;2022-11-04T17:15:07;43.70;;;25.70;;
44304;SDS011;30019;50.576;8.568;2022-11-04T17:17:33;40.33;;;23.92;;
44304;SDS011;30019;50.576;8.568;2022-11-04T17:19:59;39.72;;;21.80;;
44304;SDS011;30019;50.576;8.568;2022-11-04T17:22:24;34.03;;;18.85;;
44304;SDS011;30019;50.576;8.568;2022-11-04T17:24:50;28.98;;;17.87;;
44304;SDS011;30019;50.576;8.568;2022-11-04T17:27:16;29.40;;;15.98;;
44304;SDS011;30019;50.576;8.568;2022-11-04T17:29:42;24.73;;;14.27;;
44304;SDS011;30019;50.576;8.568;2022-11-04T17:32:07;25.17;;;14.00;;
44304;SDS011;30019;50.576;8.568;2022-11-04T17:34:33;24.63;;;13.50;;
44304;SDS011;30019;50.576;8.568;2022-11-04T17:36:59;20.85;;;11.20;;
44304;SDS011;30019;50.576;8.568;2022-11-04T17:39:25;19.95;;;11.25;;